sensor_id;sensor_type;location;lat;lon;timestamp;temperature;humidity
44695;DHT22;32845;59.422;17.930;2023-08-21T00:01:59;17.30;99.90
44695;DHT22;32845;59.422;17.930;2023-08-21T00:06:29;17.30;99.90
44695;DHT22;32845;59.422;17.930;2023-08-21T00:11:00;17.30;99.90
44695;DHT22;32845;59.422;17.930;2023-08-21T00:15:30;17.30;99.90
44695;DHT22;32845;59.422;17.930;2023-08-21T00:20:01;17.30;99.90
44695;DHT22;32845;59.422;17.930;2023-08-21T00:24:33;17.20;99.90
44695;DHT22;32845;59.422;17.930;2023-08-21T00:29:03;17.20;99.90
44695;DHT22;32845;59.422;17.930;2023-08-21T00:33:34;17.30;99.90
44695;DHT22;32845;59.422;17.930;2023-08-21T00:38:04;17.20;99.90
44695;DHT22;32845;59.422;17.930;2023-08-21T00:42:35;17.20;99.90
44695;DHT22;32845;59.422;17.930;2023-08-21T00:47:06;17.30;99.90
44695;DHT22;32845;59.422;17.930;2023-08-21T00:51:37;17.30;99.90
44695;DHT22;32845;59.422;17.930;2023-08-21T00:56:08;17.30;99.90
44695;DHT22;32845;59.422;17.930;2023-08-21T01:00:40;17.20;99.90
44695;DHT22;32845;59.422;17.930;2023-08-21T01:05:10;17.20;99.90
44695;DHT22;32845;59.422;17.930;2023-08-21T01:09:55;17.20;99.90
44695;DHT22;32845;59.422;17.930;2023-08-21T01:14:33;17.20;99.90
44695;DHT22;32845;59.422;17.930;2023-08-21T01:19:17;17.20;99.90
44695;DHT22;32845;59.422;17.930;2023-08-21T01:23:49;17.20;99.90
44695;DHT22;32845;59.422;17.930;2023-08-21T01:28:19;17.20;99.90
44695;DHT22;32845;59.422;17.930;2023-08-21T01:37:21;17.20;99.90
44695;DHT22;32845;59.422;17.930;2023-08-21T01:41:52;17.20;99.90
44695;DHT22;32845;59.422;17.930;2023-08-21T01:46:23;17.20;99.90
44695;DHT22;32845;59.422;17.930;2023-08-21T01:50:53;17.20;99.90
44695;DHT22;32845;59.422;17.930;2023-08-21T01:55:24;17.20;99.90
44695;DHT22;32845;59.422;17.930;2023-08-21T01:59:54;17.20;99.90
44695;DHT22;32845;59.422;17.930;2023-08-21T02:04:25;17.20;99.90
44695;DHT22;32845;59.422;17.930;2023-08-21T02:08:56;17.20;99.90
44695;DHT22;32845;59.422;17.930;2023-08-21T02:13:26;17.20;99.90
44695;DHT22;32845;59.422;17.930;2023-08-21T02:17:57;17.20;99.90
44695;DHT22;32845;59.422;17.930;2023-08-21T02:22:28;17.20;99.90
44695;DHT22;32845;59.422;17.930;2023-08-21T02:26:58;17.20;99.90
44695;DHT22;32845;59.422;17.930;2023-08-21T02:31:29;17.20;99.90
44695;DHT22;32845;59.422;17.930;2023-08-21T02:35:59;17.20;99.90
44695;DHT22;32845;59.422;17.930;2023-08-21T02:40:31;17.20;99.90
44695;DHT22;32845;59.422;17.930;2023-08-21T02:45:02;17.20;99.90
44695;DHT22;32845;59.422;17.930;2023-08-21T02:49:38;17.20;99.90
44695;DHT22;32845;59.422;17.930;2023-08-21T02:54:08;17.20;99.90
44695;DHT22;32845;59.422;17.930;2023-08-21T02:58:39;17.20;99.90
44695;DHT22;32845;59.422;17.930;2023-08-21T03:03:10;17.20;99.90
44695;DHT22;32845;59.422;17.930;2023-08-21T03:07:41;17.20;99.90
44695;DHT22;32845;59.422;17.930;2023-08-21T03:12:12;17.20;99.90
44695;DHT22;32845;59.422;17.930;2023-08-21T03:16:43;17.20;99.90
44695;DHT22;32845;59.422;17.930;2023-08-21T03:21:13;17.20;99.90
44695;DHT22;32845;59.422;17.930;2023-08-21T03:25:44;17.10;99.90
44695;DHT22;32845;59.422;17.930;2023-08-21T03:30:15;17.10;99.90
44695;DHT22;32845;59.422;17.930;2023-08-21T03:34:46;17.10;99.90
44695;DHT22;32845;59.422;17.930;2023-08-21T03:39:16;17.10;99.90
44695;DHT22;32845;59.422;17.930;2023-08-21T03:43:47;17.10;99.90
44695;DHT22;32845;59.422;17.930;2023-08-21T03:48:17;17.10;99.90
44695;DHT22;32845;59.422;17.930;2023-08-21T03:52:48;17.10;99.90
44695;DHT22;32845;59.422;17.930;2023-08-21T03:57:18;17.10;99.90
44695;DHT22;32845;59.422;17.930;2023-08-21T04:01:49;17.20;99.90
44695;DHT22;32845;59.422;17.930;2023-08-21T04:06:20;17.20;99.90
44695;DHT22;32845;59.422;17.930;2023-08-21T04:10:51;17.20;99.90
44695;DHT22;32845;59.422;17.930;2023-08-21T04:15:25;17.20;99.90
44695;DHT22;32845;59.422;17.930;2023-08-21T04:19:55;17.10;99.90
44695;DHT22;32845;59.422;17.930;2023-08-21T04:24:26;17.10;99.90
44695;DHT22;32845;59.422;17.930;2023-08-21T04:28:57;17.10;99.90
44695;DHT22;32845;59.422;17.930;2023-08-21T04:33:28;17.10;99.90
44695;DHT22;32845;59.422;17.930;2023-08-21T04:37:59;17.10;99.90
44695;DHT22;32845;59.422;17.930;2023-08-21T04:42:29;17.20;99.90
44695;DHT22;32845;59.422;17.930;2023-08-21T04:47:22;17.10;99.90
44695;DHT22;32845;59.422;17.930;2023-08-21T04:51:53;17.20;99.90
44695;DHT22;32845;59.422;17.930;2023-08-21T04:56:23;17.10;99.90
44695;DHT22;32845;59.422;17.930;2023-08-21T05:00:54;17.10;99.90
44695;DHT22;32845;59.422;17.930;2023-08-21T05:05:24;17.10;99.90
44695;DHT22;32845;59.422;17.930;2023-08-21T05:09:59;17.10;99.90
44695;DHT22;32845;59.422;17.930;2023-08-21T05:14:30;17.20;99.90
44695;DHT22;32845;59.422;17.930;2023-08-21T05:19:00;17.20;99.90
44695;DHT22;32845;59.422;17.930;2023-08-21T05:23:31;17.20;99.90
44695;DHT22;32845;59.422;17.930;2023-08-21T05:28:02;17.20;99.90
44695;DHT22;32845;59.422;17.930;2023-08-21T05:32:32;17.30;99.90
44695;DHT22;32845;59.422;17.930;2023-08-21T05:37:03;17.30;99.90
44695;DHT22;32845;59.422;17.930;2023-08-21T05:41:34;17.30;99.90
44695;DHT22;32845;59.422;17.930;2023-08-21T05:46:05;17.40;99.90
44695;DHT22;32845;59.422;17.930;2023-08-21T05:50:36;17.40;99.90
44695;DHT22;32845;59.422;17.930;2023-08-21T05:55:09;17.50;99.90
44695;DHT22;32845;59.422;17.930;2023-08-21T05:59:44;17.60;99.90
44695;DHT22;32845;59.422;17.930;2023-08-21T06:04:15;17.60;99.90
44695;DHT22;32845;59.422;17.930;2023-08-21T06:08:45;17.70;99.90
44695;DHT22;32845;59.422;17.930;2023-08-21T06:13:16;17.70;99.90
44695;DHT22;32845;59.422;17.930;2023-08-21T06:17:47;17.70;99.90
44695;DHT22;32845;59.422;17.930;2023-08-21T06:22:17;17.70;99.90
44695;DHT22;32845;59.422;17.930;2023-08-21T06:26:48;17.70;99.90
44695;DHT22;32845;59.422;17.930;2023-08-21T06:31:18;17.80;99.90
44695;DHT22;32845;59.422;17.930;2023-08-21T06:35:49;17.80;99.90
44695;DHT22;32845;59.422;17.930;2023-08-21T06:40:19;17.80;99.90
44695;DHT22;32845;59.422;17.930;2023-08-21T06:44:50;17.80;99.90
44695;DHT22;32845;59.422;17.930;2023-08-21T06:49:21;17.90;99.90
44695;DHT22;32845;59.422;17.930;2023-08-21T06:53:51;17.90;99.90
44695;DHT22;32845;59.422;17.930;2023-08-21T06:58:22;17.90;99.90
44695;DHT22;32845;59.422;17.930;2023-08-21T07:02:53;17.90;99.90
44695;DHT22;32845;59.422;17.930;2023-08-21T07:07:24;17.90;99.90
44695;DHT22;32845;59.422;17.930;2023-08-21T07:11:55;17.90;99.90
44695;DHT22;32845;59.422;17.930;2023-08-21T07:16:27;18.00;99.90
44695;DHT22;32845;59.422;17.930;2023-08-21T07:20:57;18.00;99.90
44695;DHT22;32845;59.422;17.930;2023-08-21T07:25:28;18.10;99.90
44695;DHT22;32845;59.422;17.930;2023-08-21T07:29:58;18.10;99.90
44695;DHT22;32845;59.422;17.930;2023-08-21T07:34:29;18.10;99.90
44695;DHT22;32845;59.422;17.930;2023-08-21T07:38:59;18.10;99.90
44695;DHT22;32845;59.422;17.930;2023-08-21T07:43:31;18.20;99.90
44695;DHT22;32845;59.422;17.930;2023-08-21T07:48:02;18.20;99.90
44695;DHT22;32845;59.422;17.930;2023-08-21T07:52:35;18.30;99.90
44695;DHT22;32845;59.422;17.930;2023-08-21T07:57:06;18.30;99.90
44695;DHT22;32845;59.422;17.930;2023-08-21T08:01:37;18.40;99.90
44695;DHT22;32845;59.422;17.930;2023-08-21T08:06:07;18.40;99.90
44695;DHT22;32845;59.422;17.930;2023-08-21T08:10:39;18.40;99.90
44695;DHT22;32845;59.422;17.930;2023-08-21T08:15:10;18.30;99.90
44695;DHT22;32845;59.422;17.930;2023-08-21T08:19:40;18.40;99.90
44695;DHT22;32845;59.422;17.930;2023-08-21T08:24:11;18.30;99.90
44695;DHT22;32845;59.422;17.930;2023-08-21T08:28:42;18.40;99.90
44695;DHT22;32845;59.422;17.930;2023-08-21T08:33:13;18.40;99.90
44695;DHT22;32845;59.422;17.930;2023-08-21T08:37:43;18.50;99.90
44695;DHT22;32845;59.422;17.930;2023-08-21T08:42:15;18.50;99.90
44695;DHT22;32845;59.422;17.930;2023-08-21T08:46:46;18.40;99.90
44695;DHT22;32845;59.422;17.930;2023-08-21T08:51:18;18.40;99.90
44695;DHT22;32845;59.422;17.930;2023-08-21T08:55:49;18.50;99.90
44695;DHT22;32845;59.422;17.930;2023-08-21T09:00:20;18.50;99.90
44695;DHT22;32845;59.422;17.930;2023-08-21T09:04:50;18.50;99.90
44695;DHT22;32845;59.422;17.930;2023-08-21T09:09:21;18.50;99.90
44695;DHT22;32845;59.422;17.930;2023-08-21T09:13:54;18.60;99.90
44695;DHT22;32845;59.422;17.930;2023-08-21T09:18:25;18.70;99.90
44695;DHT22;32845;59.422;17.930;2023-08-21T09:22:56;18.80;99.90
44695;DHT22;32845;59.422;17.930;2023-08-21T09:27:26;18.90;99.90
44695;DHT22;32845;59.422;17.930;2023-08-21T09:31:57;19.00;99.90
44695;DHT22;32845;59.422;17.930;2023-08-21T09:36:28;19.10;99.90
44695;DHT22;32845;59.422;17.930;2023-08-21T09:40:59;19.10;99.90
44695;DHT22;32845;59.422;17.930;2023-08-21T09:45:30;19.20;99.90
44695;DHT22;32845;59.422;17.930;2023-08-21T09:50:00;19.30;99.90
44695;DHT22;32845;59.422;17.930;2023-08-21T09:54:35;19.30;99.90
44695;DHT22;32845;59.422;17.930;2023-08-21T09:59:06;19.30;99.90
44695;DHT22;32845;59.422;17.930;2023-08-21T10:03:42;19.30;99.90
44695;DHT22;32845;59.422;17.930;2023-08-21T10:08:20;19.40;99.90
44695;DHT22;32845;59.422;17.930;2023-08-21T10:12:51;19.50;99.90
44695;DHT22;32845;59.422;17.930;2023-08-21T10:17:22;19.70;99.90
44695;DHT22;32845;59.422;17.930;2023-08-21T10:21:55;19.80;99.90
44695;DHT22;32845;59.422;17.930;2023-08-21T10:26:26;20.00;99.90
44695;DHT22;32845;59.422;17.930;2023-08-21T10:31:36;20.10;99.90
44695;DHT22;32845;59.422;17.930;2023-08-21T10:36:06;20.30;99.90
44695;DHT22;32845;59.422;17.930;2023-08-21T10:41:03;20.40;99.90
44695;DHT22;32845;59.422;17.930;2023-08-21T10:45:32;20.50;99.90
44695;DHT22;32845;59.422;17.930;2023-08-21T10:50:07;20.60;99.90
44695;DHT22;32845;59.422;17.930;2023-08-21T10:54:49;20.50;99.90
44695;DHT22;32845;59.422;17.930;2023-08-21T10:59:19;20.60;99.90
44695;DHT22;32845;59.422;17.930;2023-08-21T11:03:50;20.70;99.90
44695;DHT22;32845;59.422;17.930;2023-08-21T11:08:22;20.60;99.90
44695;DHT22;32845;59.422;17.930;2023-08-21T11:12:53;20.70;99.90
44695;DHT22;32845;59.422;17.930;2023-08-21T11:17:23;20.90;99.90
44695;DHT22;32845;59.422;17.930;2023-08-21T11:21:54;21.00;99.90
44695;DHT22;32845;59.422;17.930;2023-08-21T11:26:25;21.00;99.90
44695;DHT22;32845;59.422;17.930;2023-08-21T11:30:56;21.20;99.90
44695;DHT22;32845;59.422;17.930;2023-08-21T11:35:27;21.30;99.90
44695;DHT22;32845;59.422;17.930;2023-08-21T11:39:59;21.80;99.90
44695;DHT22;32845;59.422;17.930;2023-08-21T11:44:29;22.80;99.90
44695;DHT22;32845;59.422;17.930;2023-08-21T11:49:00;23.70;99.90
44695;DHT22;32845;59.422;17.930;2023-08-21T11:53:41;24.60;99.90
44695;DHT22;32845;59.422;17.930;2023-08-21T11:58:12;25.20;99.90
44695;DHT22;32845;59.422;17.930;2023-08-21T12:02:42;25.40;99.90
44695;DHT22;32845;59.422;17.930;2023-08-21T12:07:13;25.00;99.90
44695;DHT22;32845;59.422;17.930;2023-08-21T12:11:43;24.00;99.90
44695;DHT22;32845;59.422;17.930;2023-08-21T12:16:14;23.20;99.90
44695;DHT22;32845;59.422;17.930;2023-08-21T12:20:44;22.70;99.90
44695;DHT22;32845;59.422;17.930;2023-08-21T12:25:15;22.30;99.90
44695;DHT22;32845;59.422;17.930;2023-08-21T12:29:46;22.20;99.90
44695;DHT22;32845;59.422;17.930;2023-08-21T12:34:17;22.60;99.90
44695;DHT22;32845;59.422;17.930;2023-08-21T12:38:47;23.00;99.90
44695;DHT22;32845;59.422;17.930;2023-08-21T12:43:18;23.30;99.90
44695;DHT22;32845;59.422;17.930;2023-08-21T12:47:49;23.20;99.90
44695;DHT22;32845;59.422;17.930;2023-08-21T12:52:19;23.00;99.90
44695;DHT22;32845;59.422;17.930;2023-08-21T12:56:50;22.80;99.90
44695;DHT22;32845;59.422;17.930;2023-08-21T13:01:20;22.70;99.90
44695;DHT22;32845;59.422;17.930;2023-08-21T13:05:51;22.70;99.90
44695;DHT22;32845;59.422;17.930;2023-08-21T13:10:21;22.60;99.90
44695;DHT22;32845;59.422;17.930;2023-08-21T13:14:52;22.60;99.90
44695;DHT22;32845;59.422;17.930;2023-08-21T13:19:23;22.50;99.90
44695;DHT22;32845;59.422;17.930;2023-08-21T13:23:54;22.30;99.90
44695;DHT22;32845;59.422;17.930;2023-08-21T13:28:24;22.30;99.90
44695;DHT22;32845;59.422;17.930;2023-08-21T13:32:55;22.20;99.90
44695;DHT22;32845;59.422;17.930;2023-08-21T13:37:26;22.10;99.90
44695;DHT22;32845;59.422;17.930;2023-08-21T13:41:57;22.10;99.90
44695;DHT22;32845;59.422;17.930;2023-08-21T13:46:28;22.20;99.90
44695;DHT22;32845;59.422;17.930;2023-08-21T13:50:58;22.30;99.90
44695;DHT22;32845;59.422;17.930;2023-08-21T13:55:29;22.30;99.90
44695;DHT22;32845;59.422;17.930;2023-08-21T14:00:00;22.20;99.90
44695;DHT22;32845;59.422;17.930;2023-08-21T14:04:32;22.10;99.90
44695;DHT22;32845;59.422;17.930;2023-08-21T14:09:03;22.10;99.90
44695;DHT22;32845;59.422;17.930;2023-08-21T14:13:34;22.10;99.90
44695;DHT22;32845;59.422;17.930;2023-08-21T14:18:05;22.00;99.90
44695;DHT22;32845;59.422;17.930;2023-08-21T14:22:35;22.00;99.90
44695;DHT22;32845;59.422;17.930;2023-08-21T14:27:06;21.90;99.90
44695;DHT22;32845;59.422;17.930;2023-08-21T14:31:37;21.80;99.90
44695;DHT22;32845;59.422;17.930;2023-08-21T14:36:07;21.80;99.90
44695;DHT22;32845;59.422;17.930;2023-08-21T14:40:38;21.60;99.90
44695;DHT22;32845;59.422;17.930;2023-08-21T14:45:09;21.50;99.90
44695;DHT22;32845;59.422;17.930;2023-08-21T14:49:39;21.40;99.90
44695;DHT22;32845;59.422;17.930;2023-08-21T14:54:10;21.40;99.90
44695;DHT22;32845;59.422;17.930;2023-08-21T14:58:41;21.40;99.90
44695;DHT22;32845;59.422;17.930;2023-08-21T15:03:13;21.30;99.90
44695;DHT22;32845;59.422;17.930;2023-08-21T15:07:44;21.30;99.90
44695;DHT22;32845;59.422;17.930;2023-08-21T15:12:15;21.20;99.90
44695;DHT22;32845;59.422;17.930;2023-08-21T15:16:46;21.20;99.90
44695;DHT22;32845;59.422;17.930;2023-08-21T15:21:16;21.20;99.90
44695;DHT22;32845;59.422;17.930;2023-08-21T15:25:47;21.10;99.90
44695;DHT22;32845;59.422;17.930;2023-08-21T15:30:18;21.00;99.90
44695;DHT22;32845;59.422;17.930;2023-08-21T15:34:49;20.90;99.90
44695;DHT22;32845;59.422;17.930;2023-08-21T15:39:19;20.80;99.90
44695;DHT22;32845;59.422;17.930;2023-08-21T15:43:50;20.80;99.90
44695;DHT22;32845;59.422;17.930;2023-08-21T15:48:22;20.80;99.90
44695;DHT22;32845;59.422;17.930;2023-08-21T15:52:52;20.80;99.90
44695;DHT22;32845;59.422;17.930;2023-08-21T15:57:23;20.90;99.90
44695;DHT22;32845;59.422;17.930;2023-08-21T16:01:55;20.80;99.90
44695;DHT22;32845;59.422;17.930;2023-08-21T16:06:25;20.90;99.90
44695;DHT22;32845;59.422;17.930;2023-08-21T16:10:56;20.80;99.90
44695;DHT22;32845;59.422;17.930;2023-08-21T16:15:26;20.80;99.90
44695;DHT22;32845;59.422;17.930;2023-08-21T16:19:57;20.70;99.90
44695;DHT22;32845;59.422;17.930;2023-08-21T16:24:31;20.70;99.90
44695;DHT22;32845;59.422;17.930;2023-08-21T16:29:02;20.60;99.90
44695;DHT22;32845;59.422;17.930;2023-08-21T16:33:32;20.50;99.90
44695;DHT22;32845;59.422;17.930;2023-08-21T16:38:06;20.40;99.90
44695;DHT22;32845;59.422;17.930;2023-08-21T16:42:36;20.40;99.90
44695;DHT22;32845;59.422;17.930;2023-08-21T16:47:07;20.30;99.90
44695;DHT22;32845;59.422;17.930;2023-08-21T16:51:38;20.20;99.90
44695;DHT22;32845;59.422;17.930;2023-08-21T16:56:08;20.10;99.90
44695;DHT22;32845;59.422;17.930;2023-08-21T17:00:39;20.10;99.90
44695;DHT22;32845;59.422;17.930;2023-08-21T17:05:10;20.00;99.90
44695;DHT22;32845;59.422;17.930;2023-08-21T17:09:44;20.00;99.90
44695;DHT22;32845;59.422;17.930;2023-08-21T17:14:16;19.90;99.90
44695;DHT22;32845;59.422;17.930;2023-08-21T17:18:46;19.90;99.90
44695;DHT22;32845;59.422;17.930;2023-08-21T17:23:17;19.80;99.90
44695;DHT22;32845;59.422;17.930;2023-08-21T17:27:47;19.70;99.90
44695;DHT22;32845;59.422;17.930;2023-08-21T17:32:18;19.70;99.90
44695;DHT22;32845;59.422;17.930;2023-08-21T17:36:49;19.60;99.90
44695;DHT22;32845;59.422;17.930;2023-08-21T17:41:22;19.50;99.90
44695;DHT22;32845;59.422;17.930;2023-08-21T17:45:52;19.30;99.90
44695;DHT22;32845;59.422;17.930;2023-08-21T17:50:23;19.20;99.90
44695;DHT22;32845;59.422;17.930;2023-08-21T17:54:54;19.10;99.90
44695;DHT22;32845;59.422;17.930;2023-08-21T17:59:24;19.10;99.90
44695;DHT22;32845;59.422;17.930;2023-08-21T18:03:55;19.00;99.90
44695;DHT22;32845;59.422;17.930;2023-08-21T18:08:27;18.90;99.90
44695;DHT22;32845;59.422;17.930;2023-08-21T18:12:58;18.80;99.90
44695;DHT22;32845;59.422;17.930;2023-08-21T18:17:28;18.70;99.90
44695;DHT22;32845;59.422;17.930;2023-08-21T18:21:59;18.70;99.90
44695;DHT22;32845;59.422;17.930;2023-08-21T18:26:30;18.60;99.90
44695;DHT22;32845;59.422;17.930;2023-08-21T18:31:00;18.60;99.90
44695;DHT22;32845;59.422;17.930;2023-08-21T18:35:31;18.40;99.90
44695;DHT22;32845;59.422;17.930;2023-08-21T18:40:03;18.40;99.90
44695;DHT22;32845;59.422;17.930;2023-08-21T18:44:34;18.30;99.90
44695;DHT22;32845;59.422;17.930;2023-08-21T18:49:05;18.10;99.90
44695;DHT22;32845;59.422;17.930;2023-08-21T18:53:35;18.00;99.90
44695;DHT22;32845;59.422;17.930;2023-08-21T18:58:06;17.90;99.90
44695;DHT22;32845;59.422;17.930;2023-08-21T19:02:37;17.80;99.90
44695;DHT22;32845;59.422;17.930;2023-08-21T19:07:08;17.70;99.90
44695;DHT22;32845;59.422;17.930;2023-08-21T19:11:38;17.60;99.90
44695;DHT22;32845;59.422;17.930;2023-08-21T19:16:09;17.60;99.90
44695;DHT22;32845;59.422;17.930;2023-08-21T19:20:40;17.50;99.90
44695;DHT22;32845;59.422;17.930;2023-08-21T19:25:11;17.50;99.90
44695;DHT22;32845;59.422;17.930;2023-08-21T19:29:43;17.50;99.90
44695;DHT22;32845;59.422;17.930;2023-08-21T19:34:14;17.40;99.90
44695;DHT22;32845;59.422;17.930;2023-08-21T19:38:48;17.40;99.90
44695;DHT22;32845;59.422;17.930;2023-08-21T19:43:22;17.50;99.90
44695;DHT22;32845;59.422;17.930;2023-08-21T19:47:53;17.50;99.90
44695;DHT22;32845;59.422;17.930;2023-08-21T19:52:23;17.60;99.90
44695;DHT22;32845;59.422;17.930;2023-08-21T19:56:54;17.60;99.90
44695;DHT22;32845;59.422;17.930;2023-08-21T20:01:25;17.60;99.90
44695;DHT22;32845;59.422;17.930;2023-08-21T20:06:00;17.50;99.90
44695;DHT22;32845;59.422;17.930;2023-08-21T20:10:32;17.50;99.90
44695;DHT22;32845;59.422;17.930;2023-08-21T20:15:03;17.50;99.90
44695;DHT22;32845;59.422;17.930;2023-08-21T20:19:34;17.50;99.90
44695;DHT22;32845;59.422;17.930;2023-08-21T20:24:05;17.40;99.90
44695;DHT22;32845;59.422;17.930;2023-08-21T20:28:35;17.40;99.90
44695;DHT22;32845;59.422;17.930;2023-08-21T20:33:06;17.30;99.90
44695;DHT22;32845;59.422;17.930;2023-08-21T20:37:37;17.30;99.90
44695;DHT22;32845;59.422;17.930;2023-08-21T20:42:07;17.30;99.90
44695;DHT22;32845;59.422;17.930;2023-08-21T20:46:38;17.20;99.90
44695;DHT22;32845;59.422;17.930;2023-08-21T20:51:08;17.30;99.90
44695;DHT22;32845;59.422;17.930;2023-08-21T20:55:39;17.30;99.90
44695;DHT22;32845;59.422;17.930;2023-08-21T21:00:10;17.20;99.90
44695;DHT22;32845;59.422;17.930;2023-08-21T21:04:42;17.20;99.90
44695;DHT22;32845;59.422;17.930;2023-08-21T21:09:13;17.20;99.90
44695;DHT22;32845;59.422;17.930;2023-08-21T21:13:44;17.20;99.90
44695;DHT22;32845;59.422;17.930;2023-08-21T21:18:14;17.20;99.90
44695;DHT22;32845;59.422;17.930;2023-08-21T21:22:45;17.20;99.90
44695;DHT22;32845;59.422;17.930;2023-08-21T21:27:16;17.10;99.90
44695;DHT22;32845;59.422;17.930;2023-08-21T21:31:46;17.10;99.90
44695;DHT22;32845;59.422;17.930;2023-08-21T21:36:17;17.00;99.90
44695;DHT22;32845;59.422;17.930;2023-08-21T21:40:55;17.00;99.90
44695;DHT22;32845;59.422;17.930;2023-08-21T21:45:25;17.00;99.90
44695;DHT22;32845;59.422;17.930;2023-08-21T21:49:56;17.00;99.90
44695;DHT22;32845;59.422;17.930;2023-08-21T21:54:26;17.00;99.90
44695;DHT22;32845;59.422;17.930;2023-08-21T21:58:57;17.00;99.90
44695;DHT22;32845;59.422;17.930;2023-08-21T22:03:28;17.00;99.90
44695;DHT22;32845;59.422;17.930;2023-08-21T22:07:59;17.00;99.90
44695;DHT22;32845;59.422;17.930;2023-08-21T22:12:29;16.90;99.90
44695;DHT22;32845;59.422;17.930;2023-08-21T22:17:00;16.90;99.90
44695;DHT22;32845;59.422;17.930;2023-08-21T22:21:31;16.90;99.90
44695;DHT22;32845;59.422;17.930;2023-08-21T22:26:02;16.90;99.90
44695;DHT22;32845;59.422;17.930;2023-08-21T22:30:32;16.90;99.90
44695;DHT22;32845;59.422;17.930;2023-08-21T22:35:03;16.80;99.90
44695;DHT22;32845;59.422;17.930;2023-08-21T22:39:34;16.80;99.90
44695;DHT22;32845;59.422;17.930;2023-08-21T22:44:05;16.80;99.90
44695;DHT22;32845;59.422;17.930;2023-08-21T22:48:38;16.80;99.90
44695;DHT22;32845;59.422;17.930;2023-08-21T22:53:08;16.80;99.90
44695;DHT22;32845;59.422;17.930;2023-08-21T22:57:39;16.70;99.90
44695;DHT22;32845;59.422;17.930;2023-08-21T23:02:17;16.70;99.90
44695;DHT22;32845;59.422;17.930;2023-08-21T23:06:47;16.60;99.90
44695;DHT22;32845;59.422;17.930;2023-08-21T23:11:18;16.60;99.90
44695;DHT22;32845;59.422;17.930;2023-08-21T23:15:49;16.60;99.90
44695;DHT22;32845;59.422;17.930;2023-08-21T23:20:20;16.50;99.90
44695;DHT22;32845;59.422;17.930;2023-08-21T23:24:56;16.50;99.90
44695;DHT22;32845;59.422;17.930;2023-08-21T23:29:27;16.50;99.90
44695;DHT22;32845;59.422;17.930;2023-08-21T23:33:57;16.40;99.90
44695;DHT22;32845;59.422;17.930;2023-08-21T23:38:28;16.40;99.90
44695;DHT22;32845;59.422;17.930;2023-08-21T23:42:59;16.40;99.90
44695;DHT22;32845;59.422;17.930;2023-08-21T23:47:29;16.30;99.90
44695;DHT22;32845;59.422;17.930;2023-08-21T23:52:00;16.30;99.90
44695;DHT22;32845;59.422;17.930;2023-08-21T23:56:31;16.30;99.90
